Darrington, Washington
Current Conditions -  °F | °C
As of 8:15 AM on Friday 31 Oct 2014 (Local Time) from KAWO Reporting Station
Overcast Overcast  
Wind Chill: 50°   Ceiling: 1700
Heat Index: 50°   Visibility: 2mi
Dew Point: 48°   Wind: 6mph
Humidity: 94%   Direction: 310°NW
Pressure: 29.71"   Gusts: NA
Location:  48.26°N, 121.6°W
Report Text: KAWO 311515Z AUTO 31005KT 2SM BKN017 OVC024 10/09 A2971 RMK AO1
Loading
Personal Weather Stations






























Interactive Weather Map
Tropical Storm Tracking
New forecast layout! Learn more

10-Day Weather Forecast

Advertisements
Track Severe Weather on mobile